createdAt,value
2019-05-02T00:00:01.587Z,8.33
2019-05-02T00:01:01.549Z,8.30
2019-05-02T00:02:01.562Z,8.30
2019-05-02T00:03:04.563Z,8.20
2019-05-02T00:04:01.535Z,8.28
2019-05-02T00:05:01.511Z,8.25
2019-05-02T00:06:02.884Z,8.23
2019-05-02T00:07:02.514Z,8.19
2019-05-02T00:08:01.485Z,8.19
2019-05-02T00:09:03.954Z,8.23
2019-05-02T00:10:02.461Z,8.26
2019-05-02T00:11:01.465Z,8.18
2019-05-02T00:12:03.144Z,8.18
2019-05-02T00:13:01.431Z,8.15
2019-05-02T00:14:01.416Z,8.15
2019-05-02T00:15:02.189Z,8.08
2019-05-02T00:16:01.409Z,8.12
2019-05-02T00:17:01.393Z,8.16
2019-05-02T00:18:04.203Z,8.12
2019-05-02T00:19:01.362Z,8.10
2019-05-02T00:20:01.353Z,8.19
2019-05-02T00:21:03.136Z,8.15
2019-05-02T00:22:01.329Z,8.00
2019-05-02T00:23:01.351Z,8.05
2019-05-02T00:24:03.005Z,8.07
2019-05-02T00:25:01.292Z,8.08
2019-05-02T00:26:01.289Z,8.11
2019-05-02T00:27:03.132Z,8.02
2019-05-02T00:28:03.121Z,7.97
2019-05-02T00:29:01.256Z,8.08
2019-05-02T00:30:01.242Z,7.98
2019-05-02T00:31:01.235Z,8.00
2019-05-02T00:32:01.218Z,7.95
2019-05-02T00:33:03.130Z,8.00
2019-05-02T00:34:01.196Z,8.04
2019-05-02T00:35:01.197Z,8.02
2019-05-02T00:36:01.212Z,8.01
2019-05-02T00:37:01.175Z,7.87
2019-05-02T00:38:03.902Z,7.90
2019-05-02T00:39:01.148Z,7.82
2019-05-02T00:40:01.140Z,7.87
2019-05-02T00:41:02.239Z,7.75
2019-05-02T00:42:12.049Z,7.80
2019-05-02T00:43:03.161Z,7.64
2019-05-02T00:44:01.090Z,7.63
2019-05-02T00:45:01.078Z,7.68
2019-05-02T00:46:01.072Z,7.63
2019-05-02T00:47:01.068Z,7.60
2019-05-02T00:48:03.196Z,7.53
2019-05-02T00:49:01.846Z,7.63
2019-05-02T00:50:01.030Z,7.55
2019-05-02T00:51:01.017Z,7.63
2019-05-02T00:52:02.860Z,7.53
2019-05-02T00:53:07.103Z,7.61
2019-05-02T00:54:02.015Z,7.52
2019-05-02T00:55:00.970Z,7.52
2019-05-02T00:56:05.053Z,7.37
2019-05-02T00:57:01.958Z,7.37
2019-05-02T00:58:03.225Z,7.32
2019-05-02T00:59:02.446Z,7.32
2019-05-02T01:00:01.921Z,7.39
2019-05-02T01:01:00.915Z,7.37
2019-05-02T01:02:05.308Z,7.34
2019-05-02T01:03:01.915Z,7.30
2019-05-02T01:04:00.875Z,7.35
2019-05-02T01:05:03.276Z,7.34
2019-05-02T01:06:00.875Z,7.32
2019-05-02T01:07:00.853Z,7.27
2019-05-02T01:08:02.867Z,7.28
2019-05-02T01:09:00.824Z,7.20
2019-05-02T01:10:00.821Z,7.24
2019-05-02T01:11:00.801Z,7.21
2019-05-02T01:12:03.103Z,7.16
2019-05-02T01:13:03.475Z,7.24
2019-05-02T01:14:00.797Z,7.24
2019-05-02T01:15:03.223Z,7.20
2019-05-02T01:16:01.741Z,7.16
2019-05-02T01:17:00.747Z,7.16
2019-05-02T01:18:01.193Z,7.20
2019-05-02T01:19:04.152Z,7.27
2019-05-02T01:20:00.714Z,7.21
2019-05-02T01:21:02.860Z,7.21
2019-05-02T01:22:00.694Z,7.17
2019-05-02T01:23:00.677Z,7.20
2019-05-02T01:24:03.311Z,7.07
2019-05-02T01:25:00.658Z,7.15
2019-05-02T01:26:00.714Z,7.12
2019-05-02T01:27:04.655Z,6.98
2019-05-02T01:28:01.615Z,7.10
2019-05-02T01:29:04.315Z,6.98
2019-05-02T01:30:01.690Z,6.98
2019-05-02T01:31:01.702Z,6.92
2019-05-02T01:32:00.581Z,6.95
2019-05-02T01:33:01.304Z,6.97
2019-05-02T01:34:03.063Z,6.92
2019-05-02T01:35:00.547Z,6.77
2019-05-02T01:36:01.742Z,6.91
2019-05-02T01:37:01.526Z,6.89
2019-05-02T01:38:00.519Z,6.87
2019-05-02T01:39:07.580Z,6.79
2019-05-02T01:40:01.530Z,6.89
2019-05-02T01:41:00.490Z,6.80
2019-05-02T01:42:04.033Z,6.84
2019-05-02T01:43:00.468Z,6.74
2019-05-02T01:44:03.367Z,6.88
2019-05-02T01:45:00.446Z,6.77
2019-05-02T01:46:00.445Z,6.67
2019-05-02T01:47:00.416Z,6.87
2019-05-02T01:48:00.416Z,6.71
2019-05-02T01:49:04.134Z,6.80
2019-05-02T01:50:00.384Z,6.74
2019-05-02T01:51:04.651Z,6.71
2019-05-02T01:52:01.379Z,6.76
2019-05-02T01:53:00.355Z,6.74
2019-05-02T01:54:05.054Z,6.70
2019-05-02T01:55:01.332Z,6.87
2019-05-02T01:56:00.320Z,6.81
2019-05-02T01:57:04.002Z,6.85
2019-05-02T01:58:01.301Z,6.79
2019-05-02T01:59:01.221Z,6.85
2019-05-02T02:00:04.274Z,6.73
2019-05-02T02:01:01.269Z,6.73
2019-05-02T02:02:00.254Z,6.67
2019-05-02T02:03:04.274Z,6.76
2019-05-02T02:04:03.037Z,6.76
2019-05-02T02:05:00.230Z,6.71
2019-05-02T02:06:02.829Z,6.64
2019-05-02T02:07:01.205Z,6.71
2019-05-02T02:08:00.201Z,6.62
2019-05-02T02:09:08.292Z,6.58
2019-05-02T02:10:01.167Z,6.58
2019-05-02T02:11:00.166Z,6.55
2019-05-02T02:12:00.152Z,6.56
2019-05-02T02:13:04.717Z,6.55
2019-05-02T02:14:07.400Z,6.58
2019-05-02T02:15:01.123Z,6.51
2019-05-02T02:16:04.248Z,6.56
2019-05-02T02:17:01.094Z,6.41
2019-05-02T02:18:00.087Z,6.41
2019-05-02T02:19:03.934Z,6.49
2019-05-02T02:20:03.581Z,6.43
2019-05-02T02:21:00.061Z,6.49
2019-05-02T02:22:02.938Z,6.56
2019-05-02T02:23:00.033Z,6.40
2019-05-02T02:24:00.036Z,6.38
2019-05-02T02:25:03.581Z,6.40
2019-05-02T02:26:00.007Z,6.34
2019-05-02T02:26:59.995Z,6.34
2019-05-02T02:28:01.040Z,6.27
2019-05-02T02:29:03.033Z,6.25
2019-05-02T02:30:03.392Z,6.31
2019-05-02T02:31:04.840Z,6.28
2019-05-02T02:32:00.955Z,6.31
2019-05-02T02:33:07.647Z,6.33
2019-05-02T02:34:00.923Z,6.34
2019-05-02T02:35:03.616Z,6.31
2019-05-02T02:36:00.893Z,6.22
2019-05-02T02:37:05.677Z,6.27
2019-05-02T02:38:00.877Z,6.18
2019-05-02T02:38:59.862Z,6.22
2019-05-02T02:39:59.867Z,6.22
2019-05-02T02:40:59.864Z,6.15
2019-05-02T02:41:59.826Z,6.17
2019-05-02T02:43:12.626Z,6.12
2019-05-02T02:44:02.921Z,6.30
2019-05-02T02:44:59.814Z,6.27
2019-05-02T02:46:00.026Z,6.22
2019-05-02T02:46:59.778Z,6.27
2019-05-02T02:48:02.087Z,6.27
2019-05-02T02:48:59.761Z,6.21
2019-05-02T02:50:02.301Z,6.25
2019-05-02T02:50:59.725Z,6.18
2019-05-02T02:52:04.768Z,6.22
2019-05-02T02:53:00.716Z,6.36
2019-05-02T02:54:03.876Z,6.33
2019-05-02T02:55:03.184Z,6.30
2019-05-02T02:56:01.801Z,6.28
2019-05-02T02:56:59.691Z,6.30
2019-05-02T02:58:04.812Z,6.34
2019-05-02T02:59:00.648Z,6.34
2019-05-02T03:00:07.306Z,6.37
2019-05-02T03:01:03.111Z,6.37
2019-05-02T03:02:08.740Z,6.56
2019-05-02T03:03:00.606Z,6.59
2019-05-02T03:04:01.937Z,6.58
2019-05-02T03:05:00.586Z,6.54
2019-05-02T03:06:06.303Z,6.62
2019-05-02T03:07:00.562Z,6.56
2019-05-02T03:08:05.483Z,6.59
2019-05-02T03:09:00.539Z,6.69
2019-05-02T03:10:05.890Z,6.56
2019-05-02T03:11:04.071Z,6.67
2019-05-02T03:12:02.031Z,6.64
2019-05-02T03:12:59.496Z,6.74
2019-05-02T03:14:05.505Z,6.70
2019-05-02T03:15:00.477Z,6.77
2019-05-02T03:16:00.277Z,6.76
2019-05-02T03:17:00.453Z,6.77
2019-05-02T03:18:00.370Z,6.81
2019-05-02T03:18:59.432Z,6.87
2019-05-02T03:20:03.435Z,6.81
2019-05-02T03:20:59.429Z,6.80
2019-05-02T03:22:01.611Z,6.80
2019-05-02T03:22:59.385Z,6.80
2019-05-02T03:24:03.169Z,6.91
2019-05-02T03:25:00.372Z,6.85
2019-05-02T03:25:59.379Z,6.98
2019-05-02T03:26:59.363Z,6.79
2019-05-02T03:27:59.384Z,6.92
2019-05-02T03:29:00.757Z,6.91
2019-05-02T03:29:59.346Z,6.89
2019-05-02T03:30:59.338Z,6.89
2019-05-02T03:32:14.577Z,6.81
2019-05-02T03:33:09.741Z,6.85
2019-05-02T03:34:01.387Z,6.80
2019-05-02T03:34:59.256Z,6.87
2019-05-02T03:35:59.276Z,6.88
2019-05-02T03:37:03.362Z,6.89
2019-05-02T03:38:00.222Z,6.81
2019-05-02T03:38:59.225Z,6.84
2019-05-02T03:40:00.674Z,6.84
2019-05-02T03:40:59.222Z,6.91
2019-05-02T03:42:02.842Z,6.88
2019-05-02T03:42:59.184Z,6.92
2019-05-02T03:44:10.465Z,6.92
2019-05-02T03:45:04.418Z,6.91
2019-05-02T03:45:59.159Z,6.85
2019-05-02T03:47:02.188Z,6.95
2019-05-02T03:48:00.128Z,6.89
2019-05-02T03:49:07.202Z,7.03
2019-05-02T03:50:00.106Z,6.98
2019-05-02T03:50:59.130Z,7.09
2019-05-02T03:52:02.671Z,7.03
2019-05-02T03:53:00.067Z,6.97
2019-05-02T03:54:07.057Z,7.02
2019-05-02T03:55:00.044Z,6.94
2019-05-02T03:56:10.767Z,7.05
2019-05-02T03:57:00.029Z,6.95
2019-05-02T03:57:59.021Z,6.97
2019-05-02T03:58:59.037Z,7.02
2019-05-02T03:59:58.999Z,6.98
2019-05-02T04:01:01.524Z,6.95
2019-05-02T04:01:59.158Z,6.89
2019-05-02T04:03:00.189Z,6.89
2019-05-02T04:03:58.951Z,6.91
2019-05-02T04:05:00.733Z,6.91
2019-05-02T04:05:58.932Z,7.02
2019-05-02T04:07:01.197Z,6.99
2019-05-02T04:07:58.907Z,6.94
2019-05-02T04:09:00.181Z,6.98
2019-05-02T04:09:58.892Z,6.95
2019-05-02T04:10:59.770Z,7.05
2019-05-02T04:11:58.892Z,6.97
2019-05-02T04:12:59.949Z,7.03
2019-05-02T04:13:58.857Z,6.98
2019-05-02T04:14:58.831Z,7.05
2019-05-02T04:15:58.837Z,6.99
2019-05-02T04:16:58.849Z,7.06
2019-05-02T04:17:58.798Z,7.07
2019-05-02T04:18:58.794Z,7.13
2019-05-02T04:19:58.790Z,7.21
2019-05-02T04:20:58.769Z,7.23
2019-05-02T04:22:01.882Z,7.17
2019-05-02T04:22:59.752Z,7.17
2019-05-02T04:24:12.768Z,7.25
2019-05-02T04:24:59.736Z,7.31
2019-05-02T04:25:58.743Z,7.31
2019-05-02T04:26:58.724Z,7.32
2019-05-02T04:27:58.699Z,7.35
2019-05-02T04:28:58.692Z,7.45
2019-05-02T04:30:09.790Z,7.50
2019-05-02T04:30:59.666Z,7.45
2019-05-02T04:32:04.298Z,7.49
2019-05-02T04:32:59.661Z,7.50
2019-05-02T04:33:58.649Z,7.63
2019-05-02T04:34:58.618Z,7.60
2019-05-02T04:35:59.500Z,7.69
2019-05-02T04:37:00.949Z,7.77
2019-05-02T04:38:02.678Z,7.68
2019-05-02T04:38:59.747Z,7.82
2019-05-02T04:40:02.999Z,7.79
2019-05-02T04:40:59.195Z,7.86
2019-05-02T04:42:04.790Z,7.87
2019-05-02T04:43:05.475Z,7.87
2019-05-02T04:44:01.671Z,7.90
2019-05-02T04:45:13.920Z,8.00
2019-05-02T04:46:00.157Z,7.90
2019-05-02T04:47:06.474Z,7.95
2019-05-02T04:48:03.846Z,8.11
2019-05-02T04:48:59.025Z,8.08
2019-05-02T04:49:58.668Z,8.08
2019-05-02T04:51:08.837Z,8.07
2019-05-02T04:52:06.310Z,8.02
2019-05-02T04:52:59.427Z,8.15
2019-05-02T04:53:58.885Z,8.15
2019-05-02T04:55:08.244Z,8.11
2019-05-02T04:56:04.399Z,8.11
2019-05-02T04:57:02.316Z,8.22
2019-05-02T04:58:01.659Z,8.22
2019-05-02T04:59:01.172Z,8.20
2019-05-02T05:00:06.515Z,8.23
2019-05-02T05:01:01.893Z,8.23
2019-05-02T05:02:01.399Z,8.23
2019-05-02T05:02:58.345Z,8.36
2019-05-02T05:04:03.171Z,8.33
2019-05-02T05:04:59.298Z,8.38
2019-05-02T05:05:59.411Z,8.37
2019-05-02T05:07:01.062Z,8.41
2019-05-02T05:07:58.612Z,8.47
2019-05-02T05:08:58.591Z,8.45
2019-05-02T05:10:03.137Z,8.45
2019-05-02T05:10:59.226Z,8.41
2019-05-02T05:12:01.328Z,8.44
2019-05-02T05:12:58.225Z,8.44
2019-05-02T05:14:00.320Z,8.47
2019-05-02T05:15:00.492Z,8.47
2019-05-02T05:15:58.184Z,8.48
2019-05-02T05:16:58.201Z,8.48
2019-05-02T05:17:58.309Z,8.55
2019-05-02T05:18:59.944Z,8.58
2019-05-02T05:20:00.150Z,8.44
2019-05-02T05:20:58.123Z,8.50
2019-05-02T05:22:04.386Z,8.55
2019-05-02T05:22:59.127Z,8.53
2019-05-02T05:24:01.351Z,8.53
2019-05-02T05:24:58.328Z,8.59
2019-05-02T05:26:03.395Z,8.52
2019-05-02T05:27:00.187Z,8.61
2019-05-02T05:28:05.255Z,8.61
2019-05-02T05:28:59.045Z,8.61
2019-05-02T05:29:59.449Z,8.61
2019-05-02T05:30:59.018Z,8.56
2019-05-02T05:32:05.251Z,8.70
2019-05-02T05:32:59.016Z,8.61
2019-05-02T05:33:58.119Z,8.76
2019-05-02T05:34:58.062Z,8.73
2019-05-02T05:35:57.966Z,8.68
2019-05-02T05:36:58.382Z,8.74
2019-05-02T05:37:57.963Z,8.63
2019-05-02T05:38:58.437Z,8.74
2019-05-02T05:39:58.063Z,8.65
2019-05-02T05:40:58.119Z,8.58
2019-05-02T05:41:57.957Z,8.59
2019-05-02T05:43:02.704Z,8.62
2019-05-02T05:43:58.875Z,8.65
2019-05-02T05:44:58.381Z,8.68
2019-05-02T05:46:09.337Z,8.80
2019-05-02T05:46:58.884Z,8.73
2019-05-02T05:48:01.058Z,8.74
2019-05-02T05:48:58.445Z,8.65
2019-05-02T05:50:01.026Z,8.66
2019-05-02T05:50:58.047Z,8.79
2019-05-02T05:52:02.281Z,8.91
2019-05-02T05:52:59.560Z,8.87
2019-05-02T05:54:02.804Z,9.04
2019-05-02T05:54:58.760Z,9.04
2019-05-02T05:55:59.002Z,9.21
2019-05-02T05:56:57.732Z,9.29
2019-05-02T05:58:03.190Z,9.32
2019-05-02T05:58:59.253Z,9.43
2019-05-02T05:59:58.414Z,9.39
2019-05-02T06:00:58.420Z,9.47
2019-05-02T06:01:58.093Z,9.42
2019-05-02T06:03:10.117Z,9.48
2019-05-02T06:03:58.684Z,9.48
2019-05-02T06:05:02.506Z,9.54
2019-05-02T06:05:58.660Z,9.51
2019-05-02T06:07:01.602Z,9.60
2019-05-02T06:07:58.623Z,9.58
2019-05-02T06:08:57.631Z,9.48
2019-05-02T06:09:57.601Z,9.72
2019-05-02T06:10:57.593Z,9.66
2019-05-02T06:11:57.574Z,9.58
2019-05-02T06:12:57.566Z,9.69
2019-05-02T06:13:57.582Z,9.78
2019-05-02T06:15:01.915Z,9.72
2019-05-02T06:16:02.652Z,9.64
2019-05-02T06:16:57.525Z,9.75
2019-05-02T06:17:59.970Z,9.75
2019-05-02T06:18:58.524Z,9.78
2019-05-02T06:19:57.494Z,9.65
2019-05-02T06:20:58.457Z,9.78
2019-05-02T06:21:57.469Z,9.81
2019-05-02T06:23:00.065Z,9.81
2019-05-02T06:23:57.466Z,9.84
2019-05-02T06:24:57.430Z,9.86
2019-05-02T06:25:57.427Z,9.90
2019-05-02T06:26:57.421Z,9.96
2019-05-02T06:28:00.109Z,9.93
2019-05-02T06:28:58.420Z,9.97
2019-05-02T06:29:57.422Z,10.07
2019-05-02T06:30:57.397Z,9.97
2019-05-02T06:31:57.363Z,10.04
2019-05-02T06:32:57.352Z,10.12
2019-05-02T06:33:57.361Z,10.09
2019-05-02T06:34:57.327Z,10.04
2019-05-02T06:36:01.054Z,10.05
2019-05-02T06:36:58.301Z,10.12
2019-05-02T06:37:57.293Z,10.12
2019-05-02T06:38:57.928Z,10.22
2019-05-02T06:39:57.277Z,10.20
2019-05-02T06:40:57.265Z,10.26
2019-05-02T06:41:58.675Z,10.45
2019-05-02T06:42:57.238Z,10.41
2019-05-02T06:43:57.257Z,10.44
2019-05-02T06:44:59.659Z,10.53
2019-05-02T06:45:57.209Z,10.52
2019-05-02T06:46:59.110Z,10.40
2019-05-02T06:48:01.007Z,10.52
2019-05-02T06:48:57.189Z,10.61
2019-05-02T06:50:01.091Z,10.59
2019-05-02T06:50:58.170Z,10.60
2019-05-02T06:51:57.719Z,10.61
2019-05-02T06:52:57.139Z,10.52
2019-05-02T06:53:57.152Z,10.78
2019-05-02T06:54:57.977Z,10.85
2019-05-02T06:55:57.099Z,10.92
2019-05-02T06:56:57.084Z,10.97
2019-05-02T06:58:02.848Z,11.15
2019-05-02T06:58:58.091Z,11.04
2019-05-02T06:59:57.061Z,11.14
2019-05-02T07:00:58.931Z,11.10
2019-05-02T07:01:58.660Z,11.17
2019-05-02T07:02:57.026Z,11.29
2019-05-02T07:03:57.078Z,11.32
2019-05-02T07:04:57.008Z,11.39
2019-05-02T07:05:58.851Z,11.52
2019-05-02T07:06:59.488Z,11.52
2019-05-02T07:07:56.970Z,11.62
2019-05-02T07:08:59.662Z,11.73
2019-05-02T07:09:57.293Z,11.57
2019-05-02T07:11:01.419Z,11.55
2019-05-02T07:12:01.378Z,11.49
2019-05-02T07:13:10.068Z,11.42
2019-05-02T07:13:57.939Z,11.32
2019-05-02T07:15:01.505Z,11.15
2019-05-02T07:15:57.878Z,11.15
2019-05-02T07:16:56.903Z,11.06
2019-05-02T07:17:56.865Z,10.99
2019-05-02T07:18:56.851Z,11.06
2019-05-02T07:19:58.865Z,11.10
2019-05-02T07:20:57.827Z,11.17
2019-05-02T07:21:58.590Z,11.21
2019-05-02T07:22:56.809Z,11.28
2019-05-02T07:23:56.803Z,11.24
2019-05-02T07:24:56.814Z,11.47
2019-05-02T07:25:59.947Z,11.43
2019-05-02T07:26:57.082Z,11.67
2019-05-02T07:27:56.751Z,11.69
2019-05-02T07:28:56.739Z,11.73
2019-05-02T07:29:57.639Z,11.62
2019-05-02T07:30:56.722Z,11.67
2019-05-02T07:31:56.759Z,11.55
2019-05-02T07:33:01.197Z,11.49
2019-05-02T07:33:57.735Z,11.62
2019-05-02T07:34:56.699Z,11.58
2019-05-02T07:36:00.073Z,11.57
2019-05-02T07:36:56.666Z,11.49
2019-05-02T07:37:56.655Z,11.29
2019-05-02T07:38:57.594Z,11.27
2019-05-02T07:39:57.638Z,11.25
2019-05-02T07:40:56.610Z,11.28
2019-05-02T07:42:00.393Z,11.36
2019-05-02T07:42:57.590Z,11.27
2019-05-02T07:43:57.506Z,11.24
2019-05-02T07:44:56.603Z,11.27
2019-05-02T07:45:56.559Z,11.21
2019-05-02T07:46:57.020Z,11.22
2019-05-02T07:47:57.531Z,11.04
2019-05-02T07:48:56.719Z,11.02
2019-05-02T07:49:56.534Z,10.96
2019-05-02T07:50:56.875Z,11.07
2019-05-02T07:51:57.663Z,11.15
2019-05-02T07:52:56.502Z,11.25
2019-05-02T07:53:56.472Z,11.35
2019-05-02T07:55:01.227Z,11.43
2019-05-02T07:55:57.489Z,11.39
2019-05-02T07:56:56.468Z,11.40
2019-05-02T07:57:56.430Z,11.52
2019-05-02T07:58:56.417Z,11.43
2019-05-02T08:00:00.468Z,11.29
2019-05-02T08:00:57.431Z,11.36
2019-05-02T08:01:56.387Z,11.39
2019-05-02T08:02:57.984Z,11.39
2019-05-02T08:03:56.368Z,11.54
2019-05-02T08:04:56.349Z,11.76
2019-05-02T08:05:58.521Z,11.78
2019-05-02T08:06:56.334Z,11.69
2019-05-02T08:07:56.323Z,11.52
2019-05-02T08:08:56.320Z,11.47
2019-05-02T08:09:56.299Z,11.47
2019-05-02T08:11:01.723Z,11.54
2019-05-02T08:11:57.283Z,11.33
2019-05-02T08:12:56.264Z,11.15
2019-05-02T08:14:00.417Z,11.25
2019-05-02T08:14:56.244Z,11.17
2019-05-02T08:15:56.272Z,11.37
2019-05-02T08:17:05.271Z,11.44
2019-05-02T08:17:57.211Z,11.43
2019-05-02T08:18:56.198Z,11.73
2019-05-02T08:19:56.186Z,12.02
2019-05-02T08:20:57.353Z,12.17
2019-05-02T08:21:56.172Z,12.41
2019-05-02T08:22:56.155Z,12.71
2019-05-02T08:23:57.196Z,12.50
2019-05-02T08:24:57.136Z,12.46
2019-05-02T08:25:56.155Z,12.59
2019-05-02T08:26:58.389Z,12.72
2019-05-02T08:27:56.109Z,12.78
2019-05-02T08:28:56.097Z,12.87
2019-05-02T08:30:00.050Z,13.10
2019-05-02T08:30:57.090Z,13.19
2019-05-02T08:31:56.061Z,13.45
2019-05-02T08:32:56.049Z,13.59
2019-05-02T08:33:56.038Z,13.71
2019-05-02T08:34:56.032Z,13.67
2019-05-02T08:35:56.046Z,13.59
2019-05-02T08:36:58.942Z,13.48
2019-05-02T08:37:56.999Z,13.33
2019-05-02T08:38:55.992Z,13.36
2019-05-02T08:39:55.979Z,13.25
2019-05-02T08:40:55.987Z,13.45
2019-05-02T08:41:57.813Z,13.38
2019-05-02T08:42:55.939Z,13.20
2019-05-02T08:43:55.927Z,13.38
2019-05-02T08:44:56.383Z,13.22
2019-05-02T08:45:55.926Z,13.30
2019-05-02T08:46:55.899Z,13.46
2019-05-02T08:47:55.893Z,13.79
2019-05-02T08:48:55.880Z,14.07
2019-05-02T08:49:56.705Z,14.20
2019-05-02T08:50:55.874Z,14.58
2019-05-02T08:51:55.840Z,14.50
2019-05-02T08:52:55.838Z,14.12
2019-05-02T08:53:56.738Z,14.14
2019-05-02T08:54:55.812Z,14.65
2019-05-02T08:55:55.819Z,15.07
2019-05-02T08:56:59.118Z,15.23
2019-05-02T08:57:55.779Z,15.29
2019-05-02T08:58:55.768Z,15.21
2019-05-02T09:00:00.251Z,15.28
2019-05-02T09:00:56.846Z,14.60
2019-05-02T09:01:55.763Z,14.36
2019-05-02T09:02:57.183Z,14.14
2019-05-02T09:03:57.132Z,14.07
2019-05-02T09:04:58.602Z,13.84
2019-05-02T09:06:05.599Z,14.22
2019-05-02T09:06:58.706Z,14.37
2019-05-02T09:07:55.695Z,14.20
2019-05-02T09:08:55.672Z,14.00
2019-05-02T09:09:55.710Z,13.57
2019-05-02T09:10:55.658Z,13.51
2019-05-02T09:12:09.108Z,13.26
2019-05-02T09:12:56.632Z,13.00
2019-05-02T09:13:55.608Z,12.77
2019-05-02T09:14:55.598Z,12.97
2019-05-02T09:15:55.666Z,13.28
2019-05-02T09:16:55.601Z,13.54
2019-05-02T09:17:56.539Z,13.67
2019-05-02T09:18:55.579Z,13.82
2019-05-02T09:20:02.670Z,13.77
2019-05-02T09:20:56.903Z,13.63
2019-05-02T09:21:55.524Z,13.96
2019-05-02T09:22:56.032Z,14.04
2019-05-02T09:23:55.515Z,14.28
2019-05-02T09:24:55.511Z,14.17
2019-05-02T09:25:55.483Z,14.62
2019-05-02T09:26:55.467Z,15.19
2019-05-02T09:27:55.450Z,15.64
2019-05-02T09:28:56.262Z,17.30
2019-05-02T09:29:56.449Z,17.92
2019-05-02T09:30:57.457Z,17.95
2019-05-02T09:31:56.436Z,17.84
2019-05-02T09:32:57.271Z,17.79
2019-05-02T09:33:56.411Z,17.93
2019-05-02T09:34:56.610Z,17.93
2019-05-02T09:35:56.371Z,17.90
2019-05-02T09:36:55.352Z,17.22
2019-05-02T09:37:55.365Z,16.05
2019-05-02T09:38:57.581Z,17.74
2019-05-02T09:39:55.347Z,18.84
2019-05-02T09:40:56.323Z,19.08
2019-05-02T09:41:55.300Z,19.26
2019-05-02T09:43:00.042Z,19.25
2019-05-02T09:43:56.285Z,17.79
2019-05-02T09:44:56.908Z,17.19
2019-05-02T09:45:55.282Z,17.07
2019-05-02T09:46:56.988Z,17.62
2019-05-02T09:48:04.057Z,18.54
2019-05-02T09:48:56.999Z,19.06
2019-05-02T09:49:56.215Z,18.95
2019-05-02T09:50:57.736Z,18.70
2019-05-02T09:51:59.137Z,18.35
2019-05-02T09:52:56.208Z,18.80
2019-05-02T09:53:57.048Z,20.13
2019-05-02T09:54:56.166Z,20.76
2019-05-02T09:55:57.959Z,21.49
2019-05-02T09:56:55.166Z,21.13
2019-05-02T09:57:55.162Z,20.48
2019-05-02T09:59:06.204Z,20.80
2019-05-02T09:59:56.108Z,21.50
2019-05-02T10:00:55.145Z,22.17
2019-05-02T10:01:55.116Z,22.35
2019-05-02T10:02:55.111Z,21.21
2019-05-02T10:03:55.075Z,21.49
2019-05-02T10:04:55.095Z,21.59
2019-05-02T10:05:55.059Z,21.25
2019-05-02T10:06:55.083Z,21.28
2019-05-02T10:07:57.371Z,20.58
2019-05-02T10:08:56.020Z,18.72
2019-05-02T10:09:57.705Z,17.06
2019-05-02T10:10:56.003Z,16.66
2019-05-02T10:11:55.002Z,16.70
2019-05-02T10:12:54.992Z,17.30
2019-05-02T10:13:55.466Z,17.92
2019-05-02T10:14:54.961Z,19.26
2019-05-02T10:15:54.941Z,20.10
2019-05-02T10:16:57.713Z,20.77
2019-05-02T10:18:07.823Z,20.80
2019-05-02T10:18:55.946Z,21.67
2019-05-02T10:19:57.164Z,22.76
2019-05-02T10:20:54.909Z,22.64
2019-05-02T10:21:56.406Z,21.94
2019-05-02T10:22:54.905Z,22.05
2019-05-02T10:23:59.439Z,21.27
2019-05-02T10:24:55.841Z,19.95
2019-05-02T10:25:54.833Z,19.40
2019-05-02T10:27:03.320Z,20.43
2019-05-02T10:27:55.838Z,21.59
2019-05-02T10:28:54.817Z,22.31
2019-05-02T10:29:57.149Z,21.92
2019-05-02T10:30:56.552Z,22.02
2019-05-02T10:31:54.776Z,22.21
2019-05-02T10:32:57.269Z,20.57
2019-05-02T10:33:54.766Z,19.23
2019-05-02T10:34:56.786Z,18.85
2019-05-02T10:35:54.733Z,18.42
2019-05-02T10:36:59.095Z,18.45
2019-05-02T10:37:55.710Z,17.99
2019-05-02T10:38:59.217Z,18.05
2019-05-02T10:39:55.921Z,18.15
2019-05-02T10:41:01.687Z,17.71
2019-05-02T10:41:57.557Z,17.16
2019-05-02T10:42:54.659Z,16.52
2019-05-02T10:43:57.662Z,16.33
2019-05-02T10:44:54.657Z,15.93
2019-05-02T10:45:56.489Z,15.92
2019-05-02T10:46:54.619Z,15.93
2019-05-02T10:47:54.597Z,16.35
2019-05-02T10:48:54.590Z,16.48
2019-05-02T10:49:54.600Z,16.81
2019-05-02T10:50:54.592Z,17.23
2019-05-02T10:51:54.564Z,17.55
2019-05-02T10:52:54.552Z,17.54
2019-05-02T10:53:56.379Z,17.56
2019-05-02T10:54:54.545Z,17.66
2019-05-02T10:55:54.537Z,17.72
2019-05-02T10:56:54.518Z,18.11
2019-05-02T10:57:54.500Z,18.45
2019-05-02T10:58:54.489Z,18.30
2019-05-02T10:59:56.152Z,18.39
2019-05-02T11:00:54.461Z,18.23
2019-05-02T11:01:54.473Z,18.39
2019-05-02T11:02:54.450Z,18.37
2019-05-02T11:03:54.443Z,18.21
2019-05-02T11:04:54.424Z,18.00
2019-05-02T11:05:58.027Z,18.26
2019-05-02T11:06:56.787Z,18.10
2019-05-02T11:07:56.827Z,17.49
2019-05-02T11:08:55.377Z,17.43
2019-05-02T11:09:57.245Z,17.48
2019-05-02T11:10:55.355Z,17.71
2019-05-02T11:11:54.355Z,17.36
2019-05-02T11:12:56.143Z,16.70
2019-05-02T11:14:01.107Z,16.76
2019-05-02T11:14:55.334Z,17.06
2019-05-02T11:15:54.296Z,17.15
2019-05-02T11:16:56.753Z,17.51
2019-05-02T11:17:54.282Z,17.71
2019-05-02T11:18:54.268Z,17.49
2019-05-02T11:19:54.300Z,17.08
2019-05-02T11:20:54.242Z,17.19
2019-05-02T11:21:58.829Z,17.40
2019-05-02T11:22:54.657Z,17.34
2019-05-02T11:23:54.319Z,17.44
2019-05-02T11:24:54.211Z,17.11
2019-05-02T11:25:54.216Z,17.31
2019-05-02T11:26:54.244Z,17.49
2019-05-02T11:27:57.343Z,17.78
2019-05-02T11:28:55.157Z,17.84
2019-05-02T11:29:54.170Z,17.86
2019-05-02T11:30:57.025Z,17.19
2019-05-02T11:31:55.137Z,16.56
2019-05-02T11:32:54.128Z,16.53
2019-05-02T11:33:54.206Z,16.35
2019-05-02T11:34:54.117Z,15.87
2019-05-02T11:35:54.165Z,16.00
2019-05-02T11:36:54.082Z,16.05
2019-05-02T11:37:54.065Z,16.28
2019-05-02T11:39:03.156Z,16.73
2019-05-02T11:40:00.295Z,17.15
2019-05-02T11:40:55.025Z,17.44
2019-05-02T11:41:54.026Z,17.66
2019-05-02T11:42:57.343Z,17.82
2019-05-02T11:43:55.854Z,17.81
2019-05-02T11:44:53.994Z,17.93
2019-05-02T11:46:01.444Z,17.96
2019-05-02T11:46:54.968Z,17.92
2019-05-02T11:47:56.042Z,17.96
2019-05-02T11:48:58.319Z,18.03
2019-05-02T11:49:55.840Z,17.89
2019-05-02T11:50:53.925Z,17.28
2019-05-02T11:51:57.045Z,17.31
2019-05-02T11:52:53.923Z,17.62
2019-05-02T11:53:53.891Z,17.78
2019-05-02T11:54:53.882Z,17.68
2019-05-02T11:55:58.198Z,17.55
2019-05-02T11:56:54.862Z,17.36
2019-05-02T11:57:53.850Z,17.06
2019-05-02T11:58:53.847Z,17.15
2019-05-02T11:59:53.823Z,17.43
2019-05-02T12:00:53.816Z,17.78
2019-05-02T12:01:59.808Z,17.93
2019-05-02T12:02:58.078Z,17.70
2019-05-02T12:03:53.788Z,17.79
2019-05-02T12:04:55.518Z,17.99
2019-05-02T12:05:53.777Z,17.55
2019-05-02T12:07:00.937Z,17.37
2019-05-02T12:07:54.743Z,16.94
2019-05-02T12:08:53.754Z,17.01
2019-05-02T12:09:57.148Z,17.12
2019-05-02T12:10:53.707Z,17.40
2019-05-02T12:11:56.683Z,17.56
2019-05-02T12:12:53.695Z,17.55
2019-05-02T12:13:56.926Z,17.48
2019-05-02T12:14:53.691Z,17.25
2019-05-02T12:15:53.678Z,17.52
2019-05-02T12:16:53.648Z,17.66
2019-05-02T12:17:53.644Z,17.81
2019-05-02T12:18:57.990Z,17.86
2019-05-02T12:19:54.637Z,17.77
2019-05-02T12:20:53.601Z,17.86
2019-05-02T12:21:53.590Z,17.92
2019-05-02T12:22:53.584Z,18.23
2019-05-02T12:23:53.568Z,18.30
2019-05-02T12:24:53.550Z,18.45
2019-05-02T12:25:53.592Z,18.63
2019-05-02T12:26:53.536Z,18.58
2019-05-02T12:27:53.526Z,18.35
2019-05-02T12:28:53.526Z,18.03
2019-05-02T12:29:57.850Z,17.97
2019-05-02T12:30:54.507Z,18.12
2019-05-02T12:31:56.402Z,18.26
2019-05-02T12:32:53.462Z,18.15
2019-05-02T12:33:53.452Z,18.12
2019-05-02T12:34:53.452Z,18.03
2019-05-02T12:35:53.454Z,17.78
2019-05-02T12:36:53.418Z,17.92
2019-05-02T12:37:55.186Z,18.05
2019-05-02T12:38:53.417Z,18.15
2019-05-02T12:39:53.401Z,18.17
2019-05-02T12:40:53.404Z,18.26
2019-05-02T12:41:54.110Z,18.45
2019-05-02T12:42:53.355Z,18.51
2019-05-02T12:43:53.339Z,18.80
2019-05-02T12:44:53.414Z,18.98
2019-05-02T12:45:53.509Z,18.80
2019-05-02T12:46:53.318Z,18.69
2019-05-02T12:47:53.316Z,18.41
2019-05-02T12:48:53.294Z,18.33
2019-05-02T12:49:53.280Z,18.11
2019-05-02T12:50:53.289Z,17.93
2019-05-02T12:51:53.277Z,17.70
2019-05-02T12:52:55.648Z,17.72
2019-05-02T12:53:53.234Z,17.84
2019-05-02T12:54:53.222Z,17.78
2019-05-02T12:55:53.227Z,18.00
2019-05-02T12:56:53.195Z,18.03
2019-05-02T12:57:53.187Z,18.18
2019-05-02T12:58:53.242Z,18.47
2019-05-02T12:59:53.171Z,18.47
2019-05-02T13:00:53.269Z,18.41
2019-05-02T13:01:53.193Z,18.52
2019-05-02T13:02:53.140Z,18.66
2019-05-02T13:03:53.127Z,18.72
2019-05-02T13:04:53.109Z,18.69